createdAt,value
2022-08-04T00:03:19.765Z,3.00
2022-08-04T00:08:35.056Z,2.70
2022-08-04T00:13:39.494Z,2.80
2022-08-04T00:19:17.196Z,2.70
2022-08-04T00:24:21.843Z,2.60
2022-08-04T00:29:29.660Z,3.00
2022-08-04T00:34:34.517Z,3.00
2022-08-04T00:39:37.877Z,3.00
2022-08-04T00:45:08.057Z,2.90
2022-08-04T00:50:18.746Z,2.90
2022-08-04T00:55:42.429Z,2.70
2022-08-04T01:01:00.549Z,2.80
2022-08-04T01:06:15.660Z,2.70
2022-08-04T01:11:57.659Z,3.10
2022-08-04T01:17:13.053Z,2.80
2022-08-04T01:22:29.161Z,2.90
2022-08-04T01:27:48.100Z,2.90
2022-08-04T01:32:57.411Z,2.90
2022-08-04T01:38:25.977Z,3.00
2022-08-04T01:43:30.107Z,3.10
2022-08-04T01:48:34.559Z,3.30
2022-08-04T01:53:39.268Z,3.30
2022-08-04T01:58:41.591Z,3.10
2022-08-04T02:04:18.709Z,3.00
2022-08-04T02:09:30.287Z,3.20
2022-08-04T02:14:47.733Z,3.10
2022-08-04T02:20:13.653Z,2.90
2022-08-04T02:25:24.950Z,3.20
2022-08-04T02:31:04.607Z,3.30
2022-08-04T02:36:13.540Z,3.30
2022-08-04T02:41:17.777Z,3.10
2022-08-04T02:46:21.631Z,3.00
2022-08-04T02:51:32.698Z,2.90
2022-08-04T02:56:37.406Z,3.00
2022-08-04T03:01:57.009Z,3.20
2022-08-04T03:07:24.260Z,3.10
2022-08-04T03:12:48.488Z,3.40
2022-08-04T03:18:13.912Z,3.20
2022-08-04T03:23:58.160Z,3.30
2022-08-04T03:29:23.630Z,3.20
2022-08-04T03:35:22.528Z,3.20
2022-08-04T03:40:53.816Z,3.20
2022-08-04T03:46:29.472Z,3.10
2022-08-04T03:52:01.131Z,3.00
2022-08-04T03:57:24.677Z,3.20
2022-08-04T04:03:10.088Z,3.50
2022-08-04T04:08:19.067Z,3.40
2022-08-04T04:13:50.592Z,3.60
2022-08-04T04:19:22.068Z,3.00
2022-08-04T04:24:33.971Z,3.30
2022-08-04T04:29:45.156Z,3.60
2022-08-04T04:34:56.252Z,3.40
2022-08-04T04:40:10.104Z,3.00
2022-08-04T04:45:21.142Z,3.00
2022-08-04T04:50:49.687Z,3.30
2022-08-04T04:56:32.581Z,3.30
2022-08-04T05:02:12.252Z,3.50
2022-08-04T05:07:45.553Z,3.10
2022-08-04T05:14:36.356Z,3.10
2022-08-04T05:18:27.760Z,3.40
2022-08-04T05:23:32.937Z,3.40
2022-08-04T05:28:41.591Z,3.50
2022-08-04T05:33:55.474Z,3.50
2022-08-04T05:39:00.416Z,3.60
2022-08-04T05:44:04.636Z,3.50
2022-08-04T05:49:09.489Z,3.00
2022-08-04T05:54:14.136Z,3.50
2022-08-04T05:59:18.373Z,3.10
2022-08-04T06:04:25.068Z,3.20
2022-08-04T06:09:28.074Z,3.50
2022-08-04T06:14:41.111Z,3.90
2022-08-04T06:20:01.808Z,3.80
2022-08-04T06:25:09.752Z,3.80
2022-08-04T06:30:14.203Z,3.40
2022-08-04T06:35:22.828Z,3.40
2022-08-04T06:40:31.867Z,3.40
2022-08-04T06:45:39.554Z,4.60
2022-08-04T06:51:25.534Z,3.40
2022-08-04T06:56:10.871Z,3.50
2022-08-04T07:01:16.925Z,3.50
2022-08-04T07:06:21.609Z,3.90
2022-08-04T07:11:25.337Z,3.60
2022-08-04T07:16:50.889Z,3.70
2022-08-04T07:22:17.592Z,3.60
2022-08-04T07:27:17.037Z,4.10
2022-08-04T07:32:23.012Z,4.30
2022-08-04T07:37:39.936Z,4.00
2022-08-04T07:42:49.292Z,3.60
2022-08-04T07:48:05.125Z,3.80
2022-08-04T07:53:55.310Z,3.80
2022-08-04T07:58:32.356Z,3.50
2022-08-04T08:03:37.727Z,3.40
2022-08-04T08:08:40.505Z,3.90
2022-08-04T08:13:45.017Z,3.70
2022-08-04T08:18:50.053Z,3.70
2022-08-04T08:23:52.765Z,3.70
2022-08-04T08:28:58.024Z,3.90
2022-08-04T08:34:01.140Z,3.70
2022-08-04T08:39:25.099Z,3.60
2022-08-04T08:44:37.407Z,3.60
2022-08-04T08:50:15.353Z,3.50
2022-08-04T08:55:26.856Z,4.00
2022-08-04T09:00:53.296Z,4.00
2022-08-04T09:06:12.575Z,4.20
2022-08-04T09:11:19.779Z,3.90
2022-08-04T09:16:28.621Z,4.10
2022-08-04T09:21:51.278Z,4.20
2022-08-04T09:27:10.982Z,3.60
2022-08-04T09:32:22.372Z,3.80
2022-08-04T09:38:12.454Z,3.70
2022-08-04T09:43:26.306Z,3.50
2022-08-04T09:49:02.507Z,3.50
2022-08-04T09:54:30.146Z,3.60
2022-08-04T10:00:04.062Z,3.80
2022-08-04T10:05:20.166Z,3.50
2022-08-04T10:10:34.848Z,3.90
2022-08-04T10:16:07.631Z,3.50
2022-08-04T10:21:59.437Z,3.40
2022-08-04T10:27:15.256Z,4.00
2022-08-04T10:32:23.070Z,3.90
2022-08-04T10:38:01.001Z,3.90
2022-08-04T10:43:02.964Z,3.40
2022-08-04T10:48:19.070Z,3.70
2022-08-04T10:53:38.635Z,3.60
2022-08-04T10:58:49.341Z,3.40
2022-08-04T11:04:01.684Z,3.70
2022-08-04T11:09:05.797Z,3.50
2022-08-04T11:14:45.857Z,3.90
2022-08-04T11:20:32.241Z,4.10
2022-08-04T11:25:30.013Z,3.40
2022-08-04T11:30:41.442Z,3.40
2022-08-04T11:35:50.604Z,3.30
2022-08-04T11:41:03.826Z,3.90
2022-08-04T11:46:15.176Z,3.90
2022-08-04T11:51:19.019Z,3.70
2022-08-04T11:56:36.681Z,3.50
2022-08-04T12:02:07.168Z,3.50
2022-08-04T12:07:51.529Z,3.70
2022-08-04T12:13:20.603Z,3.40
2022-08-04T12:18:27.082Z,3.70
2022-08-04T12:23:35.719Z,3.70
2022-08-04T12:29:09.120Z,3.70
2022-08-04T12:34:17.054Z,4.40
2022-08-04T12:39:24.605Z,4.70
2022-08-04T12:44:38.959Z,5.50
2022-08-04T12:49:44.687Z,4.10
2022-08-04T12:55:04.896Z,4.10
2022-08-04T13:00:11.275Z,4.30
2022-08-04T13:05:17.494Z,4.20
2022-08-04T13:10:30.165Z,4.10
2022-08-04T13:15:47.558Z,4.00
2022-08-04T13:21:50.489Z,4.10
2022-08-04T13:26:58.236Z,4.20
2022-08-04T13:32:09.319Z,4.10
2022-08-04T13:37:21.053Z,4.30
2022-08-04T13:42:28.034Z,4.10
2022-08-04T13:47:36.776Z,3.70
2022-08-04T13:52:42.740Z,4.10
2022-08-04T13:57:46.876Z,4.20
2022-08-04T14:02:59.308Z,4.00
2022-08-04T14:08:15.913Z,4.80
2022-08-04T14:13:41.414Z,4.40
2022-08-04T14:19:02.768Z,4.10
2022-08-04T14:24:09.703Z,4.40
2022-08-04T14:29:42.260Z,3.90
2022-08-04T14:34:56.010Z,4.30
2022-08-04T14:40:17.212Z,3.70
2022-08-04T14:45:33.332Z,3.90
2022-08-04T14:50:40.335Z,3.70
2022-08-04T14:55:46.375Z,4.10
2022-08-04T15:00:49.532Z,20.20
2022-08-04T15:06:01.036Z,26.20
2022-08-04T15:11:07.689Z,51.50
2022-08-04T15:16:12.275Z,32.40
2022-08-04T15:21:16.195Z,22.90
2022-08-04T15:26:27.290Z,15.60
2022-08-04T15:32:07.514Z,11.10
2022-08-04T15:37:06.312Z,11.20
2022-08-04T15:42:21.882Z,9.50
2022-08-04T15:47:25.682Z,8.60
2022-08-04T15:52:31.926Z,6.00
2022-08-04T15:58:06.390Z,6.40
2022-08-04T16:04:00.189Z,6.10
2022-08-04T16:09:01.758Z,6.40
2022-08-04T16:14:05.048Z,4.30
2022-08-04T16:19:39.988Z,4.90
2022-08-04T16:24:42.893Z,5.60
2022-08-04T16:29:48.892Z,4.70
2022-08-04T16:35:03.573Z,5.10
2022-08-04T16:40:35.266Z,4.40
2022-08-04T16:45:44.150Z,4.60
2022-08-04T16:50:49.021Z,3.90
2022-08-04T16:55:54.006Z,4.00
2022-08-04T17:00:56.965Z,3.90
2022-08-04T17:06:11.231Z,4.20
2022-08-04T17:11:15.814Z,4.20
2022-08-04T17:16:20.550Z,4.20
2022-08-04T17:21:26.096Z,4.40
2022-08-04T17:26:39.944Z,3.90
2022-08-04T17:31:43.677Z,3.70
2022-08-04T17:36:47.516Z,3.90
2022-08-04T17:41:57.163Z,4.10
2022-08-04T17:47:12.419Z,3.90
2022-08-04T17:52:35.925Z,3.80
2022-08-04T17:57:52.296Z,3.90
2022-08-04T18:03:23.139Z,4.50
2022-08-04T18:08:39.597Z,3.80
2022-08-04T18:13:57.039Z,4.20
2022-08-04T18:19:19.029Z,3.60
2022-08-04T18:24:22.191Z,3.90
2022-08-04T18:29:40.331Z,3.70
2022-08-04T18:35:16.320Z,4.10
2022-08-04T18:40:26.394Z,3.60
2022-08-04T18:45:39.004Z,3.90
2022-08-04T18:51:09.249Z,4.20
2022-08-04T19:02:09.200Z,3.80
2022-08-04T19:08:01.458Z,4.00
2022-08-04T19:12:28.452Z,3.50
2022-08-04T19:17:54.149Z,4.10
2022-08-04T19:24:28.691Z,4.10
2022-08-04T19:28:20.820Z,3.80
2022-08-04T19:33:55.354Z,4.40
2022-08-04T19:38:58.909Z,3.70
2022-08-04T19:44:06.070Z,4.00
2022-08-04T19:49:08.367Z,3.70
2022-08-04T19:54:34.173Z,3.70
2022-08-04T19:59:37.717Z,4.40
2022-08-04T20:05:01.088Z,3.90
2022-08-04T20:10:08.681Z,3.90
2022-08-04T20:15:23.583Z,4.00
2022-08-04T20:20:29.153Z,3.80
2022-08-04T20:25:45.822Z,4.30
2022-08-04T20:30:54.150Z,4.00
2022-08-04T20:36:05.616Z,4.20
2022-08-04T20:41:09.530Z,3.80
2022-08-04T20:51:42.873Z,4.00
2022-08-04T20:56:51.098Z,4.40
2022-08-04T21:01:54.019Z,4.50
2022-08-04T21:06:58.187Z,4.10
2022-08-04T21:12:00.539Z,4.10
2022-08-04T21:17:02.728Z,4.00
2022-08-04T21:22:10.591Z,4.10
2022-08-04T21:27:18.680Z,4.50
2022-08-04T21:32:21.883Z,4.40
2022-08-04T21:37:57.762Z,4.20
2022-08-04T21:42:57.683Z,4.00
2022-08-04T21:48:02.078Z,4.00
2022-08-04T21:53:07.384Z,4.10
2022-08-04T21:58:09.579Z,4.60
2022-08-04T22:03:28.664Z,4.70
2022-08-04T22:08:41.384Z,4.30
2022-08-04T22:14:11.578Z,4.50
2022-08-04T22:19:13.958Z,3.90
2022-08-04T22:24:16.542Z,4.90
2022-08-04T22:29:18.966Z,5.30
2022-08-04T22:34:21.192Z,4.70
2022-08-04T22:39:27.758Z,4.50
2022-08-04T22:44:33.156Z,4.50
2022-08-04T22:49:37.182Z,4.40
2022-08-04T22:54:40.743Z,4.20
2022-08-04T22:59:43.472Z,4.20
2022-08-04T23:04:45.899Z,4.00
2022-08-04T23:09:53.099Z,4.60
2022-08-04T23:14:59.898Z,4.00
2022-08-04T23:20:02.202Z,4.10
2022-08-04T23:25:05.304Z,4.20
2022-08-04T23:30:08.004Z,4.50
2022-08-04T23:35:10.095Z,4.00
2022-08-04T23:40:29.775Z,4.30
2022-08-04T23:46:07.579Z,4.50
2022-08-04T23:51:14.592Z,4.40
2022-08-04T23:56:19.363Z,4.10
